createdAt,value
2023-03-10T00:01:19.995Z,98872.66
2023-03-10T00:03:53.863Z,98879.50
2023-03-10T00:06:28.623Z,98880.63
2023-03-10T00:09:02.181Z,98886.34
2023-03-10T00:11:36.537Z,98886.69
2023-03-10T00:14:09.865Z,98870.59
2023-03-10T00:16:43.285Z,98874.88
2023-03-10T00:19:16.344Z,98873.13
2023-03-10T00:21:49.528Z,98873.28
2023-03-10T00:24:22.670Z,98881.13
2023-03-10T00:26:56.839Z,98892.66
2023-03-10T00:29:29.800Z,98891.22
2023-03-10T00:32:02.705Z,98890.16
2023-03-10T00:34:35.661Z,98896.34
2023-03-10T00:37:09.383Z,98894.50
2023-03-10T00:39:42.463Z,98898.19
2023-03-10T00:42:16.786Z,98893.97
2023-03-10T00:44:49.793Z,98891.25
2023-03-10T00:47:22.789Z,98875.69
2023-03-10T00:49:55.945Z,98868.38
2023-03-10T00:52:32.867Z,98867.34
2023-03-10T00:55:06.280Z,98857.69
2023-03-10T00:57:40.600Z,98862.34
2023-03-10T01:00:16.040Z,98864.19
2023-03-10T01:02:51.556Z,98876.50
2023-03-10T01:05:25.034Z,98861.34
2023-03-10T01:07:58.016Z,98856.16
2023-03-10T01:10:31.050Z,98862.81
2023-03-10T01:13:06.514Z,98870.91
2023-03-10T01:15:40.013Z,98871.69
2023-03-10T01:18:13.268Z,98868.63
2023-03-10T01:20:47.044Z,98864.00
2023-03-10T01:23:21.735Z,98872.91
2023-03-10T01:25:54.875Z,98871.19
2023-03-10T01:28:29.254Z,98878.19
2023-03-10T01:31:02.383Z,98867.97
2023-03-10T01:33:35.968Z,98860.06
2023-03-10T01:36:09.552Z,98854.88
2023-03-10T01:38:43.159Z,98854.19
2023-03-10T01:41:17.152Z,98867.63
2023-03-10T01:43:52.201Z,98867.72
2023-03-10T01:46:40.041Z,98863.63
2023-03-10T01:49:19.090Z,98867.00
2023-03-10T01:51:53.545Z,98868.59
2023-03-10T01:54:29.544Z,98873.63
2023-03-10T01:57:03.519Z,98882.91
2023-03-10T01:59:37.914Z,98882.25
2023-03-10T02:02:11.329Z,98887.03
2023-03-10T02:04:45.665Z,98889.59
2023-03-10T02:07:20.338Z,98888.72
2023-03-10T02:09:54.030Z,98883.44
2023-03-10T02:12:27.499Z,98879.81
2023-03-10T02:15:02.246Z,98878.56
2023-03-10T02:17:35.752Z,98886.56
2023-03-10T02:20:27.772Z,98875.72
2023-03-10T02:23:01.052Z,98886.09
2023-03-10T02:25:40.042Z,98875.25
2023-03-10T02:28:14.701Z,98881.09
2023-03-10T02:30:49.515Z,98893.16
2023-03-10T02:33:24.866Z,98891.47
2023-03-10T02:36:03.408Z,98889.50
2023-03-10T02:38:36.404Z,98892.63
2023-03-10T02:41:15.897Z,98887.31
2023-03-10T02:43:50.810Z,98880.91
2023-03-10T02:46:24.403Z,98880.31
2023-03-10T02:48:59.814Z,98881.06
2023-03-10T02:51:35.346Z,98888.63
2023-03-10T02:54:09.933Z,98893.25
2023-03-10T02:56:43.370Z,98889.28
2023-03-10T02:59:17.971Z,98896.19
2023-03-10T03:01:50.890Z,98894.38
2023-03-10T03:04:23.886Z,98893.97
2023-03-10T03:06:57.105Z,98900.31
2023-03-10T03:09:30.255Z,98900.97
2023-03-10T03:12:03.900Z,98903.34
2023-03-10T03:14:38.649Z,98900.22
2023-03-10T03:17:12.449Z,98907.34
2023-03-10T03:19:45.499Z,98901.00
2023-03-10T03:22:18.677Z,98897.84
2023-03-10T03:24:51.719Z,98903.88
2023-03-10T03:27:24.649Z,98897.16
2023-03-10T03:29:59.366Z,98896.72
2023-03-10T03:32:32.383Z,98891.97
2023-03-10T03:35:06.052Z,98892.34
2023-03-10T03:37:39.303Z,98900.91
2023-03-10T03:40:13.910Z,98900.94
2023-03-10T03:42:48.094Z,98903.75
2023-03-10T03:45:23.738Z,98900.94
2023-03-10T03:47:56.682Z,98897.84
2023-03-10T03:50:30.074Z,98887.47
2023-03-10T03:53:03.454Z,98898.66
2023-03-10T03:55:36.499Z,98895.47
2023-03-10T03:58:09.459Z,98893.25
2023-03-10T04:00:44.017Z,98899.81
2023-03-10T04:03:17.034Z,98888.31
2023-03-10T04:05:50.276Z,98894.66
2023-03-10T04:08:23.462Z,98896.59
2023-03-10T04:10:56.967Z,98892.00
2023-03-10T04:13:30.803Z,98894.53
2023-03-10T04:16:06.018Z,98887.25
2023-03-10T04:18:39.527Z,98888.22
2023-03-10T04:21:13.082Z,98881.34
2023-03-10T04:23:46.579Z,98878.53
2023-03-10T04:26:19.693Z,98881.75
2023-03-10T04:28:52.675Z,98881.78
2023-03-10T04:31:27.530Z,98888.50
2023-03-10T04:34:00.684Z,98878.97
2023-03-10T04:36:33.898Z,98876.69
2023-03-10T04:39:07.204Z,98886.66
2023-03-10T04:41:40.201Z,98883.31
2023-03-10T04:44:29.796Z,98883.59
2023-03-10T04:47:05.322Z,98883.47
2023-03-10T04:49:39.070Z,98886.13
2023-03-10T04:52:12.159Z,98887.63
2023-03-10T04:54:44.974Z,98887.41
2023-03-10T04:57:18.230Z,98890.50
2023-03-10T04:59:52.852Z,98891.44
2023-03-10T05:02:27.459Z,98896.06
2023-03-10T05:05:01.845Z,98889.31
2023-03-10T05:07:34.877Z,98888.06
2023-03-10T05:10:08.302Z,98890.00
2023-03-10T05:12:43.315Z,98888.66
2023-03-10T05:15:17.205Z,98884.44
2023-03-10T05:17:52.122Z,98893.47
2023-03-10T05:20:25.448Z,98886.72
2023-03-10T05:22:58.396Z,98887.47
2023-03-10T05:25:31.663Z,98894.34
2023-03-10T05:28:05.256Z,98894.03
2023-03-10T05:30:38.973Z,98894.63
2023-03-10T05:33:13.340Z,98892.94
2023-03-10T05:35:46.344Z,98892.38
2023-03-10T05:38:20.630Z,98901.16
2023-03-10T05:40:54.220Z,98902.97
2023-03-10T05:43:27.667Z,98903.56
2023-03-10T05:46:01.248Z,98902.34
2023-03-10T05:48:36.130Z,98898.00
2023-03-10T05:51:10.847Z,98900.63
2023-03-10T05:53:44.148Z,98901.75
2023-03-10T05:56:19.076Z,98907.06
2023-03-10T05:58:52.353Z,98900.06
2023-03-10T06:01:25.352Z,98905.38
2023-03-10T06:04:00.718Z,98896.78
2023-03-10T06:06:33.744Z,98912.75
2023-03-10T06:09:07.282Z,98910.25
2023-03-10T06:11:41.055Z,98911.22
2023-03-10T06:14:14.236Z,98916.66
2023-03-10T06:16:51.486Z,98905.28
2023-03-10T06:19:26.330Z,98905.69
2023-03-10T06:21:59.501Z,98914.66
2023-03-10T06:24:32.832Z,98912.25
2023-03-10T06:27:06.464Z,98908.31
2023-03-10T06:29:39.685Z,98909.94
2023-03-10T06:32:14.037Z,98916.75
2023-03-10T06:34:48.429Z,98911.13
2023-03-10T06:37:21.566Z,98916.06
2023-03-10T06:39:54.910Z,98922.63
2023-03-10T06:42:27.956Z,98919.66
2023-03-10T06:45:01.025Z,98921.44
2023-03-10T06:47:34.206Z,98918.66
2023-03-10T06:50:09.512Z,98927.72
2023-03-10T06:52:42.694Z,98928.25
2023-03-10T06:55:17.043Z,98930.31
2023-03-10T06:57:50.061Z,98921.88
2023-03-10T07:00:23.614Z,98926.97
2023-03-10T07:02:56.693Z,98926.56
2023-03-10T07:05:31.245Z,98929.75
2023-03-10T07:08:04.589Z,98920.91
2023-03-10T07:10:37.828Z,98938.19
2023-03-10T07:13:15.545Z,98928.44
2023-03-10T07:15:49.341Z,98924.16
2023-03-10T07:18:22.741Z,98925.06
2023-03-10T07:20:58.259Z,98919.91
2023-03-10T07:23:31.454Z,98923.09
2023-03-10T07:26:07.914Z,98917.81
2023-03-10T07:28:41.012Z,98916.19
2023-03-10T07:31:15.115Z,98916.91
2023-03-10T07:33:49.349Z,98914.44
2023-03-10T07:36:24.252Z,98908.00
2023-03-10T07:38:57.634Z,98904.06
2023-03-10T07:41:30.703Z,98895.94
2023-03-10T07:44:03.787Z,98893.16
2023-03-10T07:46:36.699Z,98889.84
2023-03-10T07:49:09.821Z,98896.91
2023-03-10T07:51:44.384Z,98892.22
2023-03-10T07:54:17.534Z,98893.22
2023-03-10T07:56:51.212Z,98905.81
2023-03-10T07:59:24.454Z,98907.31
2023-03-10T08:01:57.683Z,98906.47
2023-03-10T08:04:31.114Z,98904.97
2023-03-10T08:07:06.539Z,98912.34
2023-03-10T08:09:39.630Z,98913.16
2023-03-10T08:12:13.930Z,98921.03
2023-03-10T08:14:47.210Z,98914.69
2023-03-10T08:17:20.268Z,98922.38
2023-03-10T08:19:53.477Z,98927.41
2023-03-10T08:22:28.234Z,98929.75
2023-03-10T08:25:01.540Z,98920.03
2023-03-10T08:27:34.571Z,98919.38
2023-03-10T08:30:08.018Z,98907.47
2023-03-10T08:32:41.513Z,98915.34
2023-03-10T08:35:15.005Z,98904.59
2023-03-10T08:37:49.502Z,98896.41
2023-03-10T08:40:22.883Z,98891.88
2023-03-10T08:42:55.903Z,98894.19
2023-03-10T08:45:28.834Z,98895.47
2023-03-10T08:48:02.020Z,98886.53
2023-03-10T08:50:35.341Z,98895.81
2023-03-10T08:53:09.903Z,98893.25
2023-03-10T08:55:42.875Z,98895.75
2023-03-10T08:58:16.876Z,98893.59
2023-03-10T09:00:49.924Z,98882.69
2023-03-10T09:03:22.987Z,98872.97
2023-03-10T09:05:56.551Z,98880.81
2023-03-10T09:08:31.615Z,98890.22
2023-03-10T09:11:04.829Z,98874.97
2023-03-10T09:13:39.434Z,98867.91
2023-03-10T09:16:13.494Z,98822.88
2023-03-10T09:18:46.756Z,98866.56
2023-03-10T09:21:20.405Z,98863.94
2023-03-10T09:23:55.077Z,98864.81
2023-03-10T09:26:28.153Z,98863.69
2023-03-10T09:29:01.847Z,98860.31
2023-03-10T09:31:36.322Z,98851.44
2023-03-10T09:34:11.668Z,98846.88
2023-03-10T09:36:44.836Z,98845.69
2023-03-10T09:39:19.076Z,98843.28
2023-03-10T09:42:09.534Z,98828.50
2023-03-10T09:44:47.940Z,98811.88
2023-03-10T09:47:26.081Z,98817.97
2023-03-10T09:50:11.654Z,98823.00
2023-03-10T09:52:47.038Z,98821.81
2023-03-10T09:55:22.907Z,98822.50
2023-03-10T09:57:56.943Z,98821.59
2023-03-10T10:00:31.904Z,98821.59
2023-03-10T10:03:09.137Z,98826.97
2023-03-10T10:05:43.121Z,98810.88
2023-03-10T10:08:21.155Z,98807.03
2023-03-10T10:10:56.638Z,98800.00
2023-03-10T10:13:31.028Z,98797.28
2023-03-10T10:16:24.610Z,98785.34
2023-03-10T10:19:05.382Z,98789.75
2023-03-10T10:21:43.547Z,98785.50
2023-03-10T10:24:17.256Z,98777.09
2023-03-10T10:26:51.905Z,98767.47
2023-03-10T10:29:26.012Z,98756.53
2023-03-10T10:32:07.700Z,98750.72
2023-03-10T10:34:41.913Z,98751.44
2023-03-10T10:37:23.291Z,98748.47
2023-03-10T10:39:57.326Z,98744.41
2023-03-10T10:42:32.813Z,98723.28
2023-03-10T10:45:07.276Z,98713.72
2023-03-10T10:47:47.752Z,98712.59
2023-03-10T10:50:22.865Z,98708.25
2023-03-10T10:53:10.713Z,98696.19
2023-03-10T10:55:45.126Z,98698.13
2023-03-10T10:58:28.293Z,98686.38
2023-03-10T11:01:02.209Z,98690.06
2023-03-10T11:03:36.943Z,98691.53
2023-03-10T11:06:14.388Z,98687.00
2023-03-10T11:08:51.404Z,98682.13
2023-03-10T11:11:29.560Z,98664.91
2023-03-10T11:14:14.231Z,98674.91
2023-03-10T11:16:52.154Z,98669.06
2023-03-10T11:19:28.813Z,98649.53
2023-03-10T11:22:08.359Z,98649.94
2023-03-10T11:24:47.256Z,98641.97
2023-03-10T11:27:25.869Z,98627.88
2023-03-10T11:30:05.659Z,98621.06
2023-03-10T11:32:46.314Z,98612.81
2023-03-10T11:35:22.228Z,98612.81
2023-03-10T11:38:02.331Z,98600.66
2023-03-10T11:40:40.721Z,98590.31
2023-03-10T11:43:18.518Z,98584.63
2023-03-10T11:45:54.500Z,98583.56
2023-03-10T11:48:41.545Z,98572.47
2023-03-10T11:51:19.233Z,98565.59
2023-03-10T11:53:54.269Z,98572.78
2023-03-10T11:56:28.142Z,98566.59
2023-03-10T11:59:04.106Z,98550.66
2023-03-10T12:01:41.572Z,98570.31
2023-03-10T12:04:17.324Z,98559.19
2023-03-10T12:06:53.877Z,98563.75
2023-03-10T12:09:33.299Z,98563.06
2023-03-10T12:12:07.878Z,98556.88
2023-03-10T12:14:42.758Z,98555.78
2023-03-10T12:17:18.651Z,98557.78
2023-03-10T12:20:12.076Z,98557.28
2023-03-10T12:22:46.413Z,98557.56
2023-03-10T12:25:38.493Z,98548.22
2023-03-10T12:28:29.606Z,98546.31
2023-03-10T12:31:03.622Z,98555.56
2023-03-10T12:33:55.898Z,98558.09
2023-03-10T12:36:39.531Z,98536.28
2023-03-10T12:39:30.328Z,98545.31
2023-03-10T12:42:04.676Z,98541.13
2023-03-10T12:44:48.358Z,98537.31
2023-03-10T12:47:28.814Z,98540.13
2023-03-10T12:50:04.428Z,98528.19
2023-03-10T12:52:47.770Z,98540.50
2023-03-10T12:55:24.227Z,98528.66
2023-03-10T12:58:15.276Z,98535.72
2023-03-10T13:00:50.624Z,98533.94
2023-03-10T13:03:27.407Z,98522.59
2023-03-10T13:06:06.059Z,98530.28
2023-03-10T13:08:44.758Z,98529.25
2023-03-10T13:11:24.656Z,98516.75
2023-03-10T13:14:00.362Z,98525.47
2023-03-10T13:16:36.432Z,98520.91
2023-03-10T13:19:20.040Z,98501.28
2023-03-10T13:21:53.532Z,98511.44
2023-03-10T13:24:29.382Z,98497.19
2023-03-10T13:27:09.190Z,98501.09
2023-03-10T13:29:42.419Z,98492.75
2023-03-10T13:32:19.567Z,98489.56
2023-03-10T13:34:53.406Z,98491.94
2023-03-10T13:37:26.690Z,98484.38
2023-03-10T13:40:09.652Z,98483.94
2023-03-10T13:42:44.682Z,98479.47
2023-03-10T13:45:22.883Z,98480.59
2023-03-10T13:47:56.006Z,98481.44
2023-03-10T13:50:30.145Z,98495.50
2023-03-10T13:53:04.617Z,98486.34
2023-03-10T13:55:41.678Z,98486.75
2023-03-10T13:58:15.256Z,98485.06
2023-03-10T14:00:50.687Z,98475.59
2023-03-10T14:03:23.671Z,98473.50
2023-03-10T14:05:56.582Z,98468.41
2023-03-10T14:08:32.478Z,98467.94
2023-03-10T14:11:38.683Z,98457.88
2023-03-10T14:14:14.514Z,98458.19
2023-03-10T14:16:48.904Z,98460.69
2023-03-10T14:19:37.847Z,98467.94
2023-03-10T14:22:31.233Z,98452.78
2023-03-10T14:25:08.042Z,98467.31
2023-03-10T14:27:42.758Z,98463.56
2023-03-10T14:30:25.498Z,98453.41
2023-03-10T14:32:59.386Z,98457.69
2023-03-10T14:35:32.568Z,98462.66
2023-03-10T14:38:05.877Z,98467.13
2023-03-10T14:40:40.784Z,98461.75
2023-03-10T14:43:16.799Z,98456.78
2023-03-10T14:45:52.121Z,98447.31
2023-03-10T14:48:27.457Z,98455.13
2023-03-10T14:51:00.779Z,98465.22
2023-03-10T14:53:34.359Z,98449.97
2023-03-10T14:56:07.508Z,98448.47
2023-03-10T14:58:44.700Z,98438.13
2023-03-10T15:01:20.470Z,98431.16
2023-03-10T15:03:53.648Z,98416.63
2023-03-10T15:06:26.779Z,98420.72
2023-03-10T15:09:01.168Z,98405.88
2023-03-10T15:11:37.343Z,98397.44
2023-03-10T15:14:14.055Z,98383.50
2023-03-10T15:16:49.565Z,98375.25
2023-03-10T15:19:23.358Z,98371.53
2023-03-10T15:21:56.685Z,98379.34
2023-03-10T15:24:29.782Z,98381.38
2023-03-10T15:27:04.385Z,98376.84
2023-03-10T15:29:37.577Z,98367.50
2023-03-10T15:32:12.997Z,98357.13
2023-03-10T15:34:46.089Z,98360.28
2023-03-10T15:37:18.914Z,98354.44
2023-03-10T15:39:52.018Z,98365.19
2023-03-10T15:42:25.301Z,98356.03
2023-03-10T15:44:58.426Z,98358.63
2023-03-10T15:47:33.008Z,98360.94
2023-03-10T15:50:06.428Z,98370.75
2023-03-10T15:52:39.775Z,98370.50
2023-03-10T15:55:14.916Z,98359.97
2023-03-10T15:57:49.950Z,98363.59
2023-03-10T16:00:24.637Z,98352.88
2023-03-10T16:02:59.041Z,98354.91
2023-03-10T16:05:34.024Z,98339.38
2023-03-10T16:08:07.259Z,98343.25
2023-03-10T16:10:40.636Z,98349.63
2023-03-10T16:13:14.663Z,98340.72
2023-03-10T16:15:48.424Z,98339.03
2023-03-10T16:18:23.289Z,98327.00
2023-03-10T16:20:56.713Z,98323.69
2023-03-10T16:23:30.707Z,98312.78
2023-03-10T16:26:08.063Z,98314.59
2023-03-10T16:28:41.907Z,98328.78
2023-03-10T16:31:16.005Z,98323.41
2023-03-10T16:33:51.492Z,98333.50
2023-03-10T16:36:25.275Z,98347.94
2023-03-10T16:38:58.788Z,98348.13
2023-03-10T16:41:31.947Z,98339.59
2023-03-10T16:44:05.412Z,98339.97
2023-03-10T16:46:38.524Z,98349.06
2023-03-10T16:49:15.240Z,98346.38
2023-03-10T16:51:49.340Z,98362.00
2023-03-10T16:54:23.257Z,98368.00
2023-03-10T16:56:59.138Z,98354.31
2023-03-10T16:59:32.723Z,98362.38
2023-03-10T17:02:05.710Z,98357.19
2023-03-10T17:04:40.096Z,98364.38
2023-03-10T17:07:14.296Z,98372.44
2023-03-10T17:09:47.342Z,98364.56
2023-03-10T17:12:21.335Z,98350.53
2023-03-10T17:14:57.646Z,98353.03
2023-03-10T17:17:32.500Z,98356.72
2023-03-10T17:20:08.149Z,98352.41
2023-03-10T17:22:41.180Z,98347.66
2023-03-10T17:25:15.042Z,98338.13
2023-03-10T17:27:48.217Z,98324.91
2023-03-10T17:30:21.422Z,98325.09
2023-03-10T17:32:54.506Z,98323.44
2023-03-10T17:35:29.428Z,98323.28
2023-03-10T17:38:02.597Z,98306.28
2023-03-10T17:40:35.466Z,98294.31
2023-03-10T17:43:23.188Z,98299.06
2023-03-10T17:46:02.830Z,98301.44
2023-03-10T17:48:36.468Z,98300.44
2023-03-10T17:51:10.739Z,98292.59
2023-03-10T17:53:43.870Z,98293.03
2023-03-10T17:56:17.658Z,98301.91
2023-03-10T17:58:51.042Z,98294.69
2023-03-10T18:01:26.012Z,98294.06
2023-03-10T18:04:00.156Z,98307.47
2023-03-10T18:06:35.236Z,98310.34
2023-03-10T18:09:09.081Z,98315.41
2023-03-10T18:11:42.252Z,98331.31
2023-03-10T18:14:15.449Z,98343.88
2023-03-10T18:16:48.496Z,98354.59
2023-03-10T18:19:21.439Z,98355.81
2023-03-10T18:21:56.121Z,98361.53
2023-03-10T18:24:29.272Z,98352.19
2023-03-10T18:27:04.393Z,98347.50
2023-03-10T18:29:37.570Z,98343.31
2023-03-10T18:32:10.615Z,98353.19
2023-03-10T18:34:43.705Z,98354.69
2023-03-10T18:37:18.013Z,98347.84
2023-03-10T18:39:51.195Z,98332.97
2023-03-10T18:42:24.375Z,98329.81
2023-03-10T18:44:57.739Z,98321.59
2023-03-10T18:47:30.841Z,98323.09
2023-03-10T18:50:03.832Z,98309.06
2023-03-10T18:52:38.317Z,98309.88
2023-03-10T18:55:12.595Z,98299.97
2023-03-10T18:57:45.834Z,98298.97
2023-03-10T19:00:19.707Z,98286.75
2023-03-10T19:02:53.921Z,98285.94
2023-03-10T19:05:26.980Z,98280.94
2023-03-10T19:08:01.711Z,98281.97
2023-03-10T19:10:35.164Z,98289.81
2023-03-10T19:13:09.376Z,98292.00
2023-03-10T19:15:42.735Z,98288.13
2023-03-10T19:18:16.166Z,98290.63
2023-03-10T19:20:49.246Z,98282.59
2023-03-10T19:23:24.165Z,98272.53
2023-03-10T19:25:57.446Z,98279.00
2023-03-10T19:28:31.300Z,98267.81
2023-03-10T19:31:09.093Z,98274.22
2023-03-10T19:33:42.463Z,98269.56
2023-03-10T19:36:17.170Z,98278.28
2023-03-10T19:38:52.533Z,98269.88
2023-03-10T19:41:26.098Z,98278.91
2023-03-10T19:43:59.620Z,98280.09
2023-03-10T19:46:35.132Z,98274.94
2023-03-10T19:49:08.615Z,98272.25
2023-03-10T19:51:41.802Z,98269.38
2023-03-10T19:54:16.821Z,98260.16
2023-03-10T19:56:50.052Z,98253.97
2023-03-10T19:59:23.336Z,98246.94
2023-03-10T20:02:01.645Z,98247.03
2023-03-10T20:04:35.473Z,98245.19
2023-03-10T20:07:08.922Z,98247.03
2023-03-10T20:09:44.889Z,98235.47
2023-03-10T20:12:18.608Z,98236.31
2023-03-10T20:14:58.731Z,98221.88
2023-03-10T20:17:32.303Z,98224.94
2023-03-10T20:20:10.613Z,98228.84
2023-03-10T20:22:46.401Z,98229.19
2023-03-10T20:25:21.718Z,98219.66
2023-03-10T20:27:55.675Z,98223.53
2023-03-10T20:30:30.602Z,98227.41
2023-03-10T20:33:05.334Z,98231.28
2023-03-10T20:35:39.201Z,98227.97
2023-03-10T20:38:12.153Z,98231.66
2023-03-10T20:40:46.519Z,98227.88
2023-03-10T20:43:19.536Z,98224.75
2023-03-10T20:45:53.127Z,98220.97
2023-03-10T20:48:26.202Z,98220.47
2023-03-10T20:51:00.358Z,98207.94
2023-03-10T20:53:37.223Z,98211.00
2023-03-10T20:56:14.306Z,98196.94
2023-03-10T20:58:47.723Z,98191.97
2023-03-10T21:01:22.251Z,98191.50
2023-03-10T21:03:55.642Z,98191.03
2023-03-10T21:06:28.844Z,98192.41
2023-03-10T21:09:05.934Z,98177.19
2023-03-10T21:11:40.774Z,98172.03
2023-03-10T21:14:14.608Z,98178.19
2023-03-10T21:16:48.751Z,98175.72
2023-03-10T21:19:21.835Z,98156.31
2023-03-10T21:21:55.982Z,98163.06
2023-03-10T21:24:29.062Z,98164.06
2023-03-10T21:27:04.132Z,98166.94
2023-03-10T21:29:36.985Z,98155.31
2023-03-10T21:32:10.048Z,98148.28
2023-03-10T21:34:42.975Z,98154.94
2023-03-10T21:37:16.122Z,98145.59
2023-03-10T21:39:49.464Z,98139.59
2023-03-10T21:42:24.272Z,98120.75
2023-03-10T21:44:57.226Z,98134.44
2023-03-10T21:47:30.283Z,98122.31
2023-03-10T21:50:03.263Z,98121.31
2023-03-10T21:52:36.438Z,98122.50
2023-03-10T21:55:11.445Z,98120.88
2023-03-10T21:57:46.284Z,98111.16
2023-03-10T22:00:20.005Z,98111.34
2023-03-10T22:02:53.311Z,98098.97
2023-03-10T22:05:26.352Z,98102.66
2023-03-10T22:07:59.488Z,98098.53
2023-03-10T22:10:32.691Z,98072.94
2023-03-10T22:13:07.948Z,98058.53
2023-03-10T22:15:41.554Z,98051.91
2023-03-10T22:18:14.790Z,98045.25
2023-03-10T22:20:47.735Z,98054.78
2023-03-10T22:23:21.342Z,98060.13
2023-03-10T22:25:54.843Z,98051.06
2023-03-10T22:28:29.867Z,98050.81
2023-03-10T22:31:03.182Z,98046.25
2023-03-10T22:33:36.391Z,98036.59
2023-03-10T22:36:10.362Z,98032.25
2023-03-10T22:38:43.677Z,98005.91
2023-03-10T22:41:16.857Z,97997.16
2023-03-10T22:43:51.966Z,97979.41
2023-03-10T22:46:25.169Z,97980.63
2023-03-10T22:48:58.161Z,97973.41
2023-03-10T22:51:31.107Z,97958.75
2023-03-10T22:54:04.329Z,97965.00
2023-03-10T22:56:37.416Z,97957.22
2023-03-10T22:59:12.814Z,97952.97
2023-03-10T23:01:45.740Z,97959.31
2023-03-10T23:04:19.613Z,97961.38
2023-03-10T23:06:52.577Z,97966.72
2023-03-10T23:09:25.757Z,97966.34
2023-03-10T23:12:01.110Z,97967.16
2023-03-10T23:14:36.032Z,97966.97
2023-03-10T23:17:09.577Z,97957.09
2023-03-10T23:19:42.894Z,97966.97
2023-03-10T23:22:16.202Z,97938.56
2023-03-10T23:24:49.554Z,97933.00
2023-03-10T23:27:22.780Z,97926.25
2023-03-10T23:29:57.702Z,97926.06
2023-03-10T23:32:30.854Z,97912.47
2023-03-10T23:35:05.893Z,97916.78
2023-03-10T23:37:39.167Z,97907.53
2023-03-10T23:40:13.619Z,97894.81
2023-03-10T23:42:47.244Z,97876.81
2023-03-10T23:45:22.661Z,97879.47
2023-03-10T23:47:56.659Z,97868.38
2023-03-10T23:50:30.958Z,97866.75
2023-03-10T23:53:04.845Z,97842.84
2023-03-10T23:55:39.058Z,97836.19
2023-03-10T23:58:12.877Z,97838.22
